sensor_id;sensor_type;location;lat;lon;timestamp;P1;durP1;ratioP1;P2;durP2;ratioP2
50689;SDS011;54375;48.298;11.238;2023-06-24T00:10:45;8.35;;;5.63;;
50689;SDS011;54375;48.298;11.238;2023-06-24T00:25:49;9.20;;;6.20;;
50689;SDS011;54375;48.298;11.238;2023-06-24T00:40:51;8.98;;;5.50;;
50689;SDS011;54375;48.298;11.238;2023-06-24T00:55:55;9.95;;;5.75;;
50689;SDS011;54375;48.298;11.238;2023-06-24T01:11:00;10.68;;;6.90;;
50689;SDS011;54375;48.298;11.238;2023-06-24T01:26:11;9.30;;;7.13;;
50689;SDS011;54375;48.298;11.238;2023-06-24T01:41:22;9.67;;;7.10;;
50689;SDS011;54375;48.298;11.238;2023-06-24T01:56:28;8.95;;;6.72;;
50689;SDS011;54375;48.298;11.238;2023-06-24T02:11:32;8.63;;;6.00;;
50689;SDS011;54375;48.298;11.238;2023-06-24T02:26:35;8.55;;;5.78;;
50689;SDS011;54375;48.298;11.238;2023-06-24T02:41:39;7.82;;;5.13;;
50689;SDS011;54375;48.298;11.238;2023-06-24T02:56:42;10.18;;;5.88;;
50689;SDS011;54375;48.298;11.238;2023-06-24T03:11:46;11.88;;;6.32;;
50689;SDS011;54375;48.298;11.238;2023-06-24T03:26:48;11.15;;;6.32;;
50689;SDS011;54375;48.298;11.238;2023-06-24T03:41:51;10.38;;;5.78;;
50689;SDS011;54375;48.298;11.238;2023-06-24T03:56:53;8.25;;;5.40;;
50689;SDS011;54375;48.298;11.238;2023-06-24T04:11:55;8.15;;;5.10;;
50689;SDS011;54375;48.298;11.238;2023-06-24T04:26:58;7.05;;;4.82;;
50689;SDS011;54375;48.298;11.238;2023-06-24T04:42:00;7.82;;;4.57;;
50689;SDS011;54375;48.298;11.238;2023-06-24T04:57:05;6.88;;;4.82;;
50689;SDS011;54375;48.298;11.238;2023-06-24T05:12:11;7.28;;;4.93;;
50689;SDS011;54375;48.298;11.238;2023-06-24T05:27:13;8.52;;;5.85;;
50689;SDS011;54375;48.298;11.238;2023-06-24T05:42:15;7.63;;;5.40;;
50689;SDS011;54375;48.298;11.238;2023-06-24T05:57:18;8.57;;;5.30;;
50689;SDS011;54375;48.298;11.238;2023-06-24T06:12:20;9.38;;;5.63;;
50689;SDS011;54375;48.298;11.238;2023-06-24T06:27:23;9.35;;;5.38;;
50689;SDS011;54375;48.298;11.238;2023-06-24T06:42:25;7.60;;;5.32;;
50689;SDS011;54375;48.298;11.238;2023-06-24T06:57:27;9.50;;;5.35;;
50689;SDS011;54375;48.298;11.238;2023-06-24T07:12:30;10.52;;;5.60;;
50689;SDS011;54375;48.298;11.238;2023-06-24T07:27:32;7.80;;;4.15;;
50689;SDS011;54375;48.298;11.238;2023-06-24T07:42:34;5.07;;;3.08;;
50689;SDS011;54375;48.298;11.238;2023-06-24T07:57:37;4.40;;;3.00;;
50689;SDS011;54375;48.298;11.238;2023-06-24T08:12:39;7.30;;;4.10;;
50689;SDS011;54375;48.298;11.238;2023-06-24T08:27:42;6.77;;;4.00;;
50689;SDS011;54375;48.298;11.238;2023-06-24T08:42:44;5.37;;;3.73;;
50689;SDS011;54375;48.298;11.238;2023-06-24T08:57:47;5.30;;;3.70;;
50689;SDS011;54375;48.298;11.238;2023-06-24T09:12:49;6.07;;;4.27;;
50689;SDS011;54375;48.298;11.238;2023-06-24T09:27:59;6.17;;;4.03;;
50689;SDS011;54375;48.298;11.238;2023-06-24T09:43:02;6.30;;;3.95;;
50689;SDS011;54375;48.298;11.238;2023-06-24T09:58:04;7.53;;;4.57;;
50689;SDS011;54375;48.298;11.238;2023-06-24T10:13:07;5.63;;;3.70;;
50689;SDS011;54375;48.298;11.238;2023-06-24T10:28:09;6.00;;;4.00;;
50689;SDS011;54375;48.298;11.238;2023-06-24T10:43:28;5.70;;;4.13;;
50689;SDS011;54375;48.298;11.238;2023-06-24T10:58:31;6.67;;;3.87;;
50689;SDS011;54375;48.298;11.238;2023-06-24T11:13:34;4.33;;;3.03;;
50689;SDS011;54375;48.298;11.238;2023-06-24T11:28:37;6.30;;;3.60;;
50689;SDS011;54375;48.298;11.238;2023-06-24T11:43:44;7.03;;;4.67;;
50689;SDS011;54375;48.298;11.238;2023-06-24T11:58:49;9.17;;;4.90;;
50689;SDS011;54375;48.298;11.238;2023-06-24T12:13:53;6.40;;;3.80;;
50689;SDS011;54375;48.298;11.238;2023-06-24T12:28:56;5.53;;;3.97;;
50689;SDS011;54375;48.298;11.238;2023-06-24T12:43:58;7.00;;;3.53;;
50689;SDS011;54375;48.298;11.238;2023-06-24T12:59:01;5.10;;;3.70;;
50689;SDS011;54375;48.298;11.238;2023-06-24T13:14:03;5.17;;;3.67;;
50689;SDS011;54375;48.298;11.238;2023-06-24T13:29:05;8.20;;;3.57;;
50689;SDS011;54375;48.298;11.238;2023-06-24T13:44:08;4.70;;;3.20;;
50689;SDS011;54375;48.298;11.238;2023-06-24T13:59:11;4.80;;;3.20;;
50689;SDS011;54375;48.298;11.238;2023-06-24T14:14:13;5.10;;;3.20;;
50689;SDS011;54375;48.298;11.238;2023-06-24T14:29:15;5.13;;;2.90;;
50689;SDS011;54375;48.298;11.238;2023-06-24T14:44:18;4.60;;;2.90;;
50689;SDS011;54375;48.298;11.238;2023-06-24T14:59:20;5.83;;;2.80;;
50689;SDS011;54375;48.298;11.238;2023-06-24T15:14:22;4.50;;;3.00;;
50689;SDS011;54375;48.298;11.238;2023-06-24T15:29:25;4.20;;;3.00;;
50689;SDS011;54375;48.298;11.238;2023-06-24T15:44:28;7.17;;;3.00;;
50689;SDS011;54375;48.298;11.238;2023-06-24T15:59:30;5.07;;;3.00;;
50689;SDS011;54375;48.298;11.238;2023-06-24T16:14:33;5.47;;;3.08;;
50689;SDS011;54375;48.298;11.238;2023-06-24T16:29:35;6.23;;;3.43;;
50689;SDS011;54375;48.298;11.238;2023-06-24T16:44:38;6.73;;;3.03;;
50689;SDS011;54375;48.298;11.238;2023-06-24T16:59:40;5.40;;;3.10;;
50689;SDS011;54375;48.298;11.238;2023-06-24T17:14:43;4.20;;;2.83;;
50689;SDS011;54375;48.298;11.238;2023-06-24T17:29:45;14.70;;;5.30;;
50689;SDS011;54375;48.298;11.238;2023-06-24T17:44:48;5.43;;;3.10;;
50689;SDS011;54375;48.298;11.238;2023-06-24T17:59:51;4.73;;;3.13;;
50689;SDS011;54375;48.298;11.238;2023-06-24T18:14:53;4.90;;;3.30;;
50689;SDS011;54375;48.298;11.238;2023-06-24T18:29:56;4.57;;;2.97;;
50689;SDS011;54375;48.298;11.238;2023-06-24T18:44:59;4.63;;;3.20;;
50689;SDS011;54375;48.298;11.238;2023-06-24T19:00:05;4.83;;;3.43;;
50689;SDS011;54375;48.298;11.238;2023-06-24T19:15:10;7.45;;;4.10;;
50689;SDS011;54375;48.298;11.238;2023-06-24T19:30:13;5.82;;;3.92;;
50689;SDS011;54375;48.298;11.238;2023-06-24T19:45:16;5.93;;;4.30;;
50689;SDS011;54375;48.298;11.238;2023-06-24T20:00:18;5.50;;;3.95;;
50689;SDS011;54375;48.298;11.238;2023-06-24T20:15:21;6.03;;;4.20;;
50689;SDS011;54375;48.298;11.238;2023-06-24T20:30:23;6.07;;;4.40;;
50689;SDS011;54375;48.298;11.238;2023-06-24T20:45:26;8.15;;;5.13;;
50689;SDS011;54375;48.298;11.238;2023-06-24T21:00:28;7.20;;;5.45;;
50689;SDS011;54375;48.298;11.238;2023-06-24T21:15:30;8.20;;;5.85;;
50689;SDS011;54375;48.298;11.238;2023-06-24T21:30:33;6.70;;;5.10;;
50689;SDS011;54375;48.298;11.238;2023-06-24T21:45:35;8.23;;;6.03;;
50689;SDS011;54375;48.298;11.238;2023-06-24T22:00:37;8.88;;;5.90;;
50689;SDS011;54375;48.298;11.238;2023-06-24T22:15:39;7.93;;;5.72;;
50689;SDS011;54375;48.298;11.238;2023-06-24T22:30:41;7.35;;;5.82;;
50689;SDS011;54375;48.298;11.238;2023-06-24T22:45:44;7.55;;;5.70;;
50689;SDS011;54375;48.298;11.238;2023-06-24T23:00:46;9.80;;;6.07;;
50689;SDS011;54375;48.298;11.238;2023-06-24T23:15:49;9.40;;;6.35;;
50689;SDS011;54375;48.298;11.238;2023-06-24T23:30:52;8.65;;;5.90;;
50689;SDS011;54375;48.298;11.238;2023-06-24T23:45:55;8.75;;;6.30;;
